Blue Springs, Mississippi
Current Conditions -  °F | °C
As of 6:53 PM on Friday 24 Oct 2014 (Local Time) from KTUP Reporting Station
Clear Clear  
Wind Chill: 62°   Ceiling: Unl
Heat Index: 62°   Visibility: 10mi
Dew Point: 51°   Wind: 0mph
Humidity: 67%   Direction: NA
Pressure: 30.08"   Gusts: NA
Location:  34.4°N, 88.87°W
Report Text: KTUP 242353Z AUTO 00000KT 10SM CLR 17/11 A3008 RMK AO2 SLP185 T01670106 10228 20167 53004
Loading
Personal Weather Stations






























Interactive Weather Map
Tropical Storm Tracking
New forecast layout! Learn more

10-Day Weather Forecast

Advertisements
Track Severe Weather on mobile